»·PEaware :: N8680J KTTD-KHAF

N8680J :: KTTD-KHAF

FLIGHT INFORMATION

Flight Status: Arrived
Operator: Privately registered:
United States
More flights under this callsign
Pilot: Tyler J. (19619)
Aircraft: PIPER PA-42-1000 CHEYENNE 400
(PAY4)
More flights by this aircraft type
Origin: KTTD Portland-Troutdale
United States
Destination: KHAF Half Moon Bay
United States
More flights between these airports :: More routes between these airports
Route: + GLARA V448 OED V23 JINGO PYE
File this flight plan on PilotEdge
Remarks:
Altitude:
(Current/Filed)
17,500ft
Speed:
(Current/Filed)
270kts
Departed: 19-Jun-19 08:29 PM
Arrived: 19-Jun-19 10:34 PM
Distance/Time
Traveled:
482nm/2:05
Distance/Time
To Go:
Arrived

Flight Plot

Page will automatically refresh every two minutes.


Map Options




Map Legend


Flown Route
Filed Route
Departure Airport
Arrival Airport
Navaid (VOR, NDB)
Fix

Horizontal Profiles

Position Reports

Time Latitude Longitude Heading Altitude Ground
Speed
19-Jun-19 20:12 45.550700 -122.400791 67 43ft 1kts
19-Jun-19 20:13 45.550596 -122.400534 127 43ft 0kts
19-Jun-19 20:14 45.550595 -122.400532 127 43ft 0kts
19-Jun-19 20:15 45.550594 -122.400529 127 43ft 0kts
19-Jun-19 20:16 45.550592 -122.400527 127 43ft 0kts
19-Jun-19 20:17 45.550591 -122.400525 127 43ft 0kts
19-Jun-19 20:18 45.550590 -122.400522 127 43ft 0kts
19-Jun-19 20:19 45.550589 -122.400520 127 43ft 0kts
19-Jun-19 20:20 45.550587 -122.400517 127 43ft 0kts
19-Jun-19 20:21 45.550586 -122.400515 127 43ft 0kts
19-Jun-19 20:22 45.550357 -122.400213 144 43ft 2kts
19-Jun-19 20:23 45.550017 -122.399429 110 43ft 0kts
19-Jun-19 20:24 45.549976 -122.398342 89 43ft 1kts
19-Jun-19 20:25 45.549986 -122.397546 88 43ft 12kts
19-Jun-19 20:26 45.550055 -122.392442 90 43ft 14kts
19-Jun-19 20:27 45.549772 -122.390876 181 43ft 0kts
19-Jun-19 20:28 45.549306 -122.413135 271 195ft 138kts
19-Jun-19 20:29 45.523927 -122.438473 135 1241ft 197kts
19-Jun-19 20:30 45.483773 -122.381695 153 1573ft 206kts
19-Jun-19 20:31 45.430244 -122.388767 194 2717ft 196kts
19-Jun-19 20:32 45.380623 -122.418612 224 4179ft 200kts
19-Jun-19 20:33 45.337884 -122.476907 226 5256ft 209kts
19-Jun-19 20:34 45.296341 -122.536791 226 5906ft 237kts
19-Jun-19 20:35 45.242227 -122.592671 199 5490ft 240kts
19-Jun-19 20:36 45.179384 -122.619291 193 5485ft 233kts
19-Jun-19 20:37 45.113977 -122.618496 179 5489ft 240kts
19-Jun-19 20:38 45.045439 -122.621203 185 5489ft 251kts
19-Jun-19 20:39 44.975350 -122.629766 186 5483ft 253kts
19-Jun-19 20:40 44.904873 -122.636224 183 5480ft 254kts
19-Jun-19 20:41 44.834142 -122.638448 181 5482ft 254kts
19-Jun-19 20:42 44.763087 -122.639271 181 5473ft 255kts
19-Jun-19 20:43 44.692367 -122.641515 182 5474ft 255kts
19-Jun-19 20:44 44.621400 -122.645594 183 5468ft 255kts
19-Jun-19 20:45 44.552305 -122.659995 211 5473ft 252kts
19-Jun-19 20:46 44.497872 -122.721466 222 5469ft 252kts
19-Jun-19 20:47 44.446284 -122.787821 230 5463ft 252kts
19-Jun-19 20:48 44.409486 -122.859518 236 5479ft 251kts
19-Jun-19 20:49 44.370108 -122.940150 236 5485ft 252kts
19-Jun-19 20:50 44.330177 -123.020939 228 5485ft 252kts
19-Jun-19 20:51 44.271578 -123.074971 210 5489ft 253kts
19-Jun-19 20:52 44.210406 -123.123525 210 5488ft 253kts
19-Jun-19 20:53 44.148909 -123.172148 208 5498ft 253kts
19-Jun-19 20:54 44.081585 -123.201514 197 5492ft 255kts
19-Jun-19 20:55 44.013734 -123.230918 198 5493ft 255kts
19-Jun-19 20:56 43.946055 -123.260582 198 5492ft 255kts
19-Jun-19 20:57 43.878260 -123.290282 198 5488ft 255kts
19-Jun-19 20:58 43.812439 -123.315080 193 5492ft 256kts
19-Jun-19 20:59 43.743641 -123.334747 190 5482ft 250kts
19-Jun-19 21:00 43.675059 -123.351982 192 5484ft 250kts
19-Jun-19 21:01 43.607168 -123.372938 193 5484ft 250kts
19-Jun-19 21:02 43.539288 -123.393602 192 5866ft 239kts
19-Jun-19 21:04 43.476174 -123.411639 192 7153ft 227kts
19-Jun-19 21:05 43.414351 -123.428902 192 8448ft 227kts
19-Jun-19 21:06 43.352130 -123.446246 193 9751ft 228kts
19-Jun-19 21:07 43.289604 -123.461912 173 11044ft 232kts
19-Jun-19 21:08 43.230746 -123.424160 159 12321ft 238kts
19-Jun-19 21:09 43.167155 -123.391594 161 13333ft 248kts
19-Jun-19 21:10 43.103024 -123.354262 155 14335ft 253kts
19-Jun-19 21:11 43.041340 -123.306890 151 15336ft 253kts
19-Jun-19 21:12 42.981188 -123.258548 154 16332ft 247kts
19-Jun-19 21:13 42.920760 -123.217323 157 17298ft 240kts
19-Jun-19 21:14 42.858176 -123.177328 156 17467ft 258kts
19-Jun-19 21:15 42.792958 -123.130723 153 17467ft 268kts
19-Jun-19 21:16 42.726876 -123.083439 155 17501ft 270kts
19-Jun-19 21:17 42.659352 -123.037846 154 17469ft 272kts
19-Jun-19 21:18 42.592105 -122.990464 154 17462ft 272kts
19-Jun-19 21:19 42.524643 -122.944042 154 17452ft 272kts
19-Jun-19 21:20 42.454933 -122.905427 171 17447ft 270kts
19-Jun-19 21:21 42.380210 -122.906623 179 17449ft 269kts
19-Jun-19 21:22 42.306729 -122.890275 168 17496ft 269kts
19-Jun-19 21:23 42.236142 -122.873069 174 17498ft 269kts
19-Jun-19 21:24 42.161514 -122.867950 181 17500ft 268kts
19-Jun-19 21:24 42.099184 -122.868565 181 17503ft 268kts
19-Jun-19 21:26 42.012053 -122.862253 175 17506ft 269kts
19-Jun-19 21:27 41.937396 -122.851170 175 17504ft 269kts
19-Jun-19 21:27 41.875070 -122.844855 178 17506ft 269kts
19-Jun-19 21:29 41.787820 -122.839003 177 17483ft 270kts
19-Jun-19 21:30 41.712829 -122.831014 176 17481ft 270kts
19-Jun-19 21:30 41.650538 -122.825015 177 17476ft 269kts
19-Jun-19 21:31 41.575403 -122.818279 176 17453ft 270kts
19-Jun-19 21:33 41.489489 -122.797393 164 17446ft 271kts
19-Jun-19 21:33 41.429057 -122.774110 166 17433ft 271kts
19-Jun-19 21:34 41.355485 -122.752207 170 17433ft 270kts
19-Jun-19 21:35 41.280907 -122.736982 172 17419ft 271kts
19-Jun-19 21:36 41.208327 -122.710749 159 17419ft 271kts
19-Jun-19 21:37 41.138445 -122.674380 159 17504ft 269kts
19-Jun-19 21:38 41.068494 -122.637834 159 17468ft 271kts
19-Jun-19 21:39 40.998349 -122.601713 160 17468ft 270kts
19-Jun-19 21:40 40.927537 -122.566820 160 17414ft 272kts
19-Jun-19 21:41 40.856638 -122.532433 160 17400ft 271kts
19-Jun-19 21:42 40.785101 -122.501636 161 17393ft 270kts
19-Jun-19 21:43 40.716109 -122.462383 158 17366ft 270kts
19-Jun-19 21:44 40.644507 -122.431980 163 17369ft 270kts
19-Jun-19 21:45 40.572418 -122.403259 163 17359ft 270kts
19-Jun-19 21:46 40.502769 -122.377170 163 17357ft 270kts
19-Jun-19 21:47 40.431079 -122.347977 162 17360ft 270kts
19-Jun-19 21:48 40.359491 -122.317163 161 17321ft 270kts
19-Jun-19 21:49 40.288194 -122.286019 161 17324ft 270kts
19-Jun-19 21:50 40.217069 -122.254866 161 17300ft 270kts
19-Jun-19 21:51 40.146002 -122.223758 161 17301ft 269kts
19-Jun-19 21:52 40.074921 -122.192665 161 17305ft 269kts
19-Jun-19 21:53 40.004224 -122.161776 161 17395ft 264kts
19-Jun-19 21:54 39.934780 -122.131401 161 17499ft 264kts
19-Jun-19 21:55 39.865755 -122.097670 163 17508ft 265kts
19-Jun-19 21:56 39.795138 -122.069483 162 17504ft 265kts
19-Jun-19 21:57 39.724962 -122.038997 161 17505ft 265kts
19-Jun-19 21:58 39.653330 -122.008529 177 17061ft 282kts
19-Jun-19 21:59 39.583396 -122.053868 211 17019ft 287kts
19-Jun-19 22:00 39.514045 -122.105006 204 17030ft 286kts
19-Jun-19 22:01 39.445390 -122.146719 202 17022ft 286kts
19-Jun-19 22:02 39.372147 -122.187965 201 17000ft 287kts
19-Jun-19 22:03 39.298689 -122.228242 199 16990ft 286kts
19-Jun-19 22:04 39.225398 -122.267956 199 16994ft 286kts
19-Jun-19 22:05 39.152047 -122.307544 199 16987ft 284kts
19-Jun-19 22:06 39.079216 -122.346704 199 17008ft 286kts
19-Jun-19 22:07 39.004529 -122.386929 199 17031ft 293kts
19-Jun-19 22:08 38.931438 -122.426332 199 17009ft 293kts
19-Jun-19 22:09 38.855885 -122.466782 199 17020ft 294kts
19-Jun-19 22:10 38.781105 -122.506602 199 17025ft 288kts
19-Jun-19 22:11 38.707152 -122.545731 199 17033ft 287kts
19-Jun-19 22:12 38.633674 -122.584545 200 17047ft 283kts
19-Jun-19 22:13 38.560992 -122.622826 200 17061ft 282kts
19-Jun-19 22:14 38.488299 -122.661050 201 17065ft 282kts
19-Jun-19 22:15 38.416124 -122.698875 201 17066ft 280kts
19-Jun-19 22:16 38.344125 -122.736454 201 17067ft 279kts
19-Jun-19 22:17 38.272309 -122.773740 201 17070ft 278kts
19-Jun-19 22:18 38.199571 -122.810977 200 16324ft 287kts
19-Jun-19 22:19 38.125248 -122.847528 200 14539ft 286kts
19-Jun-19 22:20 38.049573 -122.877272 175 12736ft 282kts
19-Jun-19 22:21 37.986535 -122.827476 144 10938ft 259kts
19-Jun-19 22:22 37.928608 -122.781287 153 9168ft 234kts
19-Jun-19 22:23 37.875556 -122.742816 149 7360ft 209kts
19-Jun-19 22:24 37.827388 -122.704990 148 5564ft 202kts
19-Jun-19 22:25 37.777585 -122.664820 146 4065ft 206kts
19-Jun-19 22:26 37.741054 -122.623095 141 4100ft 164kts
19-Jun-19 22:27 37.700071 -122.625099 184 3760ft 169kts
19-Jun-19 22:28 37.649549 -122.622753 176 3024ft 172kts
19-Jun-19 22:29 37.608706 -122.600496 152 2618ft 161kts
19-Jun-19 22:30 37.573432 -122.565988 142 1900ft 146kts
19-Jun-19 22:31 37.546835 -122.537030 142 1463ft 119kts
19-Jun-19 22:32 37.523486 -122.511992 140 323ft 107kts
19-Jun-19 22:33 37.509960 -122.496736 136 71ft 35kts
19-Jun-19 22:34 37.509270 -122.494745 40 71ft 4kts
19-Jun-19 22:35 37.509674 -122.494194 50 71ft 0kts
19-Jun-19 22:36 37.511598 -122.493388 314 71ft 17kts
19-Jun-19 22:37 37.514488 -122.496270 97 71ft 0kts
19-Jun-19 22:38 37.514488 -122.496270 97 71ft 0kts

Navigation Log

Ident Type
Flight plan parsing failed, navigation log unavailable